sensor_id;sensor_type;location;lat;lon;timestamp;temperature;humidity
12289;DHT22;6207;49.308;7.336;2022-07-30T00:02:10;17.10;99.90
12289;DHT22;6207;49.308;7.336;2022-07-30T00:04:37;17.10;99.90
12289;DHT22;6207;49.308;7.336;2022-07-30T00:07:03;17.00;99.90
12289;DHT22;6207;49.308;7.336;2022-07-30T00:09:30;17.00;99.90
12289;DHT22;6207;49.308;7.336;2022-07-30T00:12:00;16.80;99.90
12289;DHT22;6207;49.308;7.336;2022-07-30T00:14:27;16.80;99.90
12289;DHT22;6207;49.308;7.336;2022-07-30T00:16:54;16.90;99.90
12289;DHT22;6207;49.308;7.336;2022-07-30T00:19:21;17.00;99.90
12289;DHT22;6207;49.308;7.336;2022-07-30T00:21:48;16.70;99.90
12289;DHT22;6207;49.308;7.336;2022-07-30T00:24:15;16.60;99.90
12289;DHT22;6207;49.308;7.336;2022-07-30T00:26:42;16.60;99.90
12289;DHT22;6207;49.308;7.336;2022-07-30T00:29:09;16.60;99.90
12289;DHT22;6207;49.308;7.336;2022-07-30T00:31:36;16.40;99.90
12289;DHT22;6207;49.308;7.336;2022-07-30T00:34:03;16.30;99.90
12289;DHT22;6207;49.308;7.336;2022-07-30T00:36:29;16.30;99.90
12289;DHT22;6207;49.308;7.336;2022-07-30T00:38:56;16.20;99.90
12289;DHT22;6207;49.308;7.336;2022-07-30T00:41:24;16.20;99.90
12289;DHT22;6207;49.308;7.336;2022-07-30T00:43:51;16.30;99.90
12289;DHT22;6207;49.308;7.336;2022-07-30T00:46:18;15.80;99.90
12289;DHT22;6207;49.308;7.336;2022-07-30T00:48:45;16.00;99.90
12289;DHT22;6207;49.308;7.336;2022-07-30T00:51:14;15.90;99.90
12289;DHT22;6207;49.308;7.336;2022-07-30T00:53:41;15.90;99.90
12289;DHT22;6207;49.308;7.336;2022-07-30T00:56:08;15.90;99.90
12289;DHT22;6207;49.308;7.336;2022-07-30T00:58:35;15.80;99.90
12289;DHT22;6207;49.308;7.336;2022-07-30T01:01:02;15.80;99.90
12289;DHT22;6207;49.308;7.336;2022-07-30T01:03:29;15.70;99.90
12289;DHT22;6207;49.308;7.336;2022-07-30T01:05:56;15.80;99.90
12289;DHT22;6207;49.308;7.336;2022-07-30T01:08:22;15.60;99.90
12289;DHT22;6207;49.308;7.336;2022-07-30T01:10:49;15.60;99.90
12289;DHT22;6207;49.308;7.336;2022-07-30T01:13:16;15.50;99.90
12289;DHT22;6207;49.308;7.336;2022-07-30T01:15:43;15.50;99.90
12289;DHT22;6207;49.308;7.336;2022-07-30T01:18:11;15.40;99.90
12289;DHT22;6207;49.308;7.336;2022-07-30T01:20:49;15.30;99.90
12289;DHT22;6207;49.308;7.336;2022-07-30T01:23:31;15.30;99.90
12289;DHT22;6207;49.308;7.336;2022-07-30T01:26:08;15.30;99.90
12289;DHT22;6207;49.308;7.336;2022-07-30T01:28:38;15.20;99.90
12289;DHT22;6207;49.308;7.336;2022-07-30T01:31:07;15.20;99.90
12289;DHT22;6207;49.308;7.336;2022-07-30T01:33:39;15.20;99.90
12289;DHT22;6207;49.308;7.336;2022-07-30T01:36:10;15.10;99.90
12289;DHT22;6207;49.308;7.336;2022-07-30T01:38:42;15.20;99.90
12289;DHT22;6207;49.308;7.336;2022-07-30T01:41:10;15.20;99.90
12289;DHT22;6207;49.308;7.336;2022-07-30T01:43:38;15.00;99.90
12289;DHT22;6207;49.308;7.336;2022-07-30T01:46:06;15.10;99.90
12289;DHT22;6207;49.308;7.336;2022-07-30T01:48:37;15.00;99.90
12289;DHT22;6207;49.308;7.336;2022-07-30T01:51:06;15.00;99.90
12289;DHT22;6207;49.308;7.336;2022-07-30T01:53:37;15.00;99.90
12289;DHT22;6207;49.308;7.336;2022-07-30T01:56:06;14.80;99.90
12289;DHT22;6207;49.308;7.336;2022-07-30T01:58:37;14.80;99.90
12289;DHT22;6207;49.308;7.336;2022-07-30T02:01:05;14.80;99.90
12289;DHT22;6207;49.308;7.336;2022-07-30T02:03:34;14.70;99.90
12289;DHT22;6207;49.308;7.336;2022-07-30T02:06:07;14.70;99.90
12289;DHT22;6207;49.308;7.336;2022-07-30T02:08:57;14.60;99.90
12289;DHT22;6207;49.308;7.336;2022-07-30T02:11:24;14.70;99.90
12289;DHT22;6207;49.308;7.336;2022-07-30T02:14:23;14.60;99.90
12289;DHT22;6207;49.308;7.336;2022-07-30T02:16:53;14.50;99.90
12289;DHT22;6207;49.308;7.336;2022-07-30T02:19:28;14.50;99.90
12289;DHT22;6207;49.308;7.336;2022-07-30T02:22:03;14.50;99.90
12289;DHT22;6207;49.308;7.336;2022-07-30T02:24:36;14.50;99.90
12289;DHT22;6207;49.308;7.336;2022-07-30T02:27:12;14.40;99.90
12289;DHT22;6207;49.308;7.336;2022-07-30T02:29:42;14.30;99.90
12289;DHT22;6207;49.308;7.336;2022-07-30T02:32:11;14.20;99.90
12289;DHT22;6207;49.308;7.336;2022-07-30T02:34:41;14.20;99.90
12289;DHT22;6207;49.308;7.336;2022-07-30T02:37:10;14.10;99.90
12289;DHT22;6207;49.308;7.336;2022-07-30T02:39:38;14.00;99.90
12289;DHT22;6207;49.308;7.336;2022-07-30T02:42:09;14.10;99.90
12289;DHT22;6207;49.308;7.336;2022-07-30T02:44:37;14.00;99.90
12289;DHT22;6207;49.308;7.336;2022-07-30T02:47:06;14.10;99.90
12289;DHT22;6207;49.308;7.336;2022-07-30T02:49:33;14.00;99.90
12289;DHT22;6207;49.308;7.336;2022-07-30T02:52:02;14.00;99.90
12289;DHT22;6207;49.308;7.336;2022-07-30T02:54:30;14.00;99.90
12289;DHT22;6207;49.308;7.336;2022-07-30T02:56:59;14.00;99.90
12289;DHT22;6207;49.308;7.336;2022-07-30T02:59:28;14.00;99.90
12289;DHT22;6207;49.308;7.336;2022-07-30T03:01:56;14.00;99.90
12289;DHT22;6207;49.308;7.336;2022-07-30T03:04:24;13.90;99.90
12289;DHT22;6207;49.308;7.336;2022-07-30T03:06:53;14.00;99.90
12289;DHT22;6207;49.308;7.336;2022-07-30T03:09:21;14.00;99.90
12289;DHT22;6207;49.308;7.336;2022-07-30T03:11:51;13.90;99.90
12289;DHT22;6207;49.308;7.336;2022-07-30T03:14:19;14.00;99.90
12289;DHT22;6207;49.308;7.336;2022-07-30T03:16:50;13.90;99.90
12289;DHT22;6207;49.308;7.336;2022-07-30T03:19:21;13.90;99.90
12289;DHT22;6207;49.308;7.336;2022-07-30T03:21:51;13.80;99.90
12289;DHT22;6207;49.308;7.336;2022-07-30T03:24:19;14.00;99.90
12289;DHT22;6207;49.308;7.336;2022-07-30T03:26:48;13.80;99.90
12289;DHT22;6207;49.308;7.336;2022-07-30T03:29:17;13.80;99.90
12289;DHT22;6207;49.308;7.336;2022-07-30T03:31:47;13.70;99.90
12289;DHT22;6207;49.308;7.336;2022-07-30T03:34:15;13.60;99.90
12289;DHT22;6207;49.308;7.336;2022-07-30T03:36:43;13.60;99.90
12289;DHT22;6207;49.308;7.336;2022-07-30T03:39:11;13.60;99.90
12289;DHT22;6207;49.308;7.336;2022-07-30T03:41:38;13.60;99.90
12289;DHT22;6207;49.308;7.336;2022-07-30T03:44:06;13.60;99.90
12289;DHT22;6207;49.308;7.336;2022-07-30T03:46:37;13.60;99.90
12289;DHT22;6207;49.308;7.336;2022-07-30T03:49:04;13.50;99.90
12289;DHT22;6207;49.308;7.336;2022-07-30T03:51:35;13.50;99.90
12289;DHT22;6207;49.308;7.336;2022-07-30T03:54:03;13.50;99.90
12289;DHT22;6207;49.308;7.336;2022-07-30T03:56:39;13.50;99.90
12289;DHT22;6207;49.308;7.336;2022-07-30T03:59:07;13.40;99.90
12289;DHT22;6207;49.308;7.336;2022-07-30T04:01:34;13.40;99.90
12289;DHT22;6207;49.308;7.336;2022-07-30T04:04:08;13.40;99.90
12289;DHT22;6207;49.308;7.336;2022-07-30T04:06:36;13.40;99.90
12289;DHT22;6207;49.308;7.336;2022-07-30T04:09:10;13.40;99.90
12289;DHT22;6207;49.308;7.336;2022-07-30T04:11:38;13.50;99.90
12289;DHT22;6207;49.308;7.336;2022-07-30T04:14:07;13.50;99.90
12289;DHT22;6207;49.308;7.336;2022-07-30T04:16:38;13.50;99.90
12289;DHT22;6207;49.308;7.336;2022-07-30T04:19:14;13.50;99.90
12289;DHT22;6207;49.308;7.336;2022-07-30T04:21:41;13.50;99.90
12289;DHT22;6207;49.308;7.336;2022-07-30T04:24:10;13.50;99.90
12289;DHT22;6207;49.308;7.336;2022-07-30T04:26:38;13.50;99.90
12289;DHT22;6207;49.308;7.336;2022-07-30T04:29:07;13.50;99.90
12289;DHT22;6207;49.308;7.336;2022-07-30T04:31:39;13.50;99.90
12289;DHT22;6207;49.308;7.336;2022-07-30T04:34:07;13.50;99.90
12289;DHT22;6207;49.308;7.336;2022-07-30T04:36:34;13.60;99.90
12289;DHT22;6207;49.308;7.336;2022-07-30T04:39:03;13.60;99.90
12289;DHT22;6207;49.308;7.336;2022-07-30T04:41:30;13.70;99.90
12289;DHT22;6207;49.308;7.336;2022-07-30T04:44:16;13.70;99.90
12289;DHT22;6207;49.308;7.336;2022-07-30T04:46:44;13.70;99.90
12289;DHT22;6207;49.308;7.336;2022-07-30T04:49:11;13.70;99.90
12289;DHT22;6207;49.308;7.336;2022-07-30T04:51:39;13.60;99.90
12289;DHT22;6207;49.308;7.336;2022-07-30T04:54:09;13.60;99.90
12289;DHT22;6207;49.308;7.336;2022-07-30T04:56:43;13.70;99.90
12289;DHT22;6207;49.308;7.336;2022-07-30T04:59:26;13.90;99.90
12289;DHT22;6207;49.308;7.336;2022-07-30T05:01:56;13.70;99.90
12289;DHT22;6207;49.308;7.336;2022-07-30T05:04:25;13.70;99.90
12289;DHT22;6207;49.308;7.336;2022-07-30T05:06:53;13.70;99.90
12289;DHT22;6207;49.308;7.336;2022-07-30T05:09:21;13.80;99.90
12289;DHT22;6207;49.308;7.336;2022-07-30T05:11:52;13.80;99.90
12289;DHT22;6207;49.308;7.336;2022-07-30T05:14:20;14.50;99.90
12289;DHT22;6207;49.308;7.336;2022-07-30T05:16:48;15.30;99.90
12289;DHT22;6207;49.308;7.336;2022-07-30T05:19:15;15.60;99.90
12289;DHT22;6207;49.308;7.336;2022-07-30T05:21:42;15.60;99.90
12289;DHT22;6207;49.308;7.336;2022-07-30T05:24:09;15.50;99.90
12289;DHT22;6207;49.308;7.336;2022-07-30T05:26:36;15.40;99.90
12289;DHT22;6207;49.308;7.336;2022-07-30T05:29:03;15.60;99.90
12289;DHT22;6207;49.308;7.336;2022-07-30T05:31:32;15.70;99.90
12289;DHT22;6207;49.308;7.336;2022-07-30T05:34:00;16.50;99.90
12289;DHT22;6207;49.308;7.336;2022-07-30T05:36:29;17.40;99.90
12289;DHT22;6207;49.308;7.336;2022-07-30T05:38:56;18.40;99.90
12289;DHT22;6207;49.308;7.336;2022-07-30T05:41:23;19.20;99.90
12289;DHT22;6207;49.308;7.336;2022-07-30T05:43:59;20.10;99.90
12289;DHT22;6207;49.308;7.336;2022-07-30T05:46:27;20.50;99.90
12289;DHT22;6207;49.308;7.336;2022-07-30T05:48:54;21.40;99.90
12289;DHT22;6207;49.308;7.336;2022-07-30T05:51:21;21.60;99.90
12289;DHT22;6207;49.308;7.336;2022-07-30T05:53:48;22.30;99.90
12289;DHT22;6207;49.308;7.336;2022-07-30T05:56:15;22.80;99.90
12289;DHT22;6207;49.308;7.336;2022-07-30T05:58:42;23.00;99.90
12289;DHT22;6207;49.308;7.336;2022-07-30T06:01:08;23.10;99.90
12289;DHT22;6207;49.308;7.336;2022-07-30T06:03:37;23.60;99.90
12289;DHT22;6207;49.308;7.336;2022-07-30T06:06:05;23.80;99.90
12289;DHT22;6207;49.308;7.336;2022-07-30T06:08:33;24.00;99.90
12289;DHT22;6207;49.308;7.336;2022-07-30T06:11:00;24.50;99.90
12289;DHT22;6207;49.308;7.336;2022-07-30T06:13:26;24.70;99.90
12289;DHT22;6207;49.308;7.336;2022-07-30T06:15:53;25.60;99.90
12289;DHT22;6207;49.308;7.336;2022-07-30T06:18:20;25.00;99.90
12289;DHT22;6207;49.308;7.336;2022-07-30T06:20:52;25.10;99.90
12289;DHT22;6207;49.308;7.336;2022-07-30T06:23:20;24.70;99.90
12289;DHT22;6207;49.308;7.336;2022-07-30T06:25:48;25.50;99.90
12289;DHT22;6207;49.308;7.336;2022-07-30T06:28:15;26.40;99.90
12289;DHT22;6207;49.308;7.336;2022-07-30T06:31:02;26.30;99.90
12289;DHT22;6207;49.308;7.336;2022-07-30T06:33:29;26.30;99.90
12289;DHT22;6207;49.308;7.336;2022-07-30T06:35:56;25.50;99.90
12289;DHT22;6207;49.308;7.336;2022-07-30T06:38:23;26.40;99.90
12289;DHT22;6207;49.308;7.336;2022-07-30T06:40:50;26.80;99.90
12289;DHT22;6207;49.308;7.336;2022-07-30T06:43:17;27.20;99.90
12289;DHT22;6207;49.308;7.336;2022-07-30T06:45:45;27.30;99.90
12289;DHT22;6207;49.308;7.336;2022-07-30T06:48:12;27.00;99.90
12289;DHT22;6207;49.308;7.336;2022-07-30T06:50:39;27.50;99.90
12289;DHT22;6207;49.308;7.336;2022-07-30T06:53:07;27.50;99.90
12289;DHT22;6207;49.308;7.336;2022-07-30T06:55:34;27.80;99.90
12289;DHT22;6207;49.308;7.336;2022-07-30T06:58:01;28.60;99.90
12289;DHT22;6207;49.308;7.336;2022-07-30T07:00:28;28.80;99.90
12289;DHT22;6207;49.308;7.336;2022-07-30T07:02:55;28.70;99.90
12289;DHT22;6207;49.308;7.336;2022-07-30T07:05:22;29.80;99.90
12289;DHT22;6207;49.308;7.336;2022-07-30T07:07:49;30.10;99.90
12289;DHT22;6207;49.308;7.336;2022-07-30T07:10:25;30.20;99.90
12289;DHT22;6207;49.308;7.336;2022-07-30T07:12:52;28.70;99.90
12289;DHT22;6207;49.308;7.336;2022-07-30T07:15:26;28.90;99.90
12289;DHT22;6207;49.308;7.336;2022-07-30T07:18:03;27.90;99.90
12289;DHT22;6207;49.308;7.336;2022-07-30T07:20:31;28.50;99.90
12289;DHT22;6207;49.308;7.336;2022-07-30T07:22:59;29.80;99.90
12289;DHT22;6207;49.308;7.336;2022-07-30T07:25:35;30.00;99.90
12289;DHT22;6207;49.308;7.336;2022-07-30T07:28:24;28.40;99.90
12289;DHT22;6207;49.308;7.336;2022-07-30T07:31:08;29.80;99.90
12289;DHT22;6207;49.308;7.336;2022-07-30T07:33:36;28.70;99.90
12289;DHT22;6207;49.308;7.336;2022-07-30T07:36:04;26.30;99.90
12289;DHT22;6207;49.308;7.336;2022-07-30T07:38:39;26.60;99.90
12289;DHT22;6207;49.308;7.336;2022-07-30T07:41:11;26.50;99.90
12289;DHT22;6207;49.308;7.336;2022-07-30T07:43:41;24.40;99.90
12289;DHT22;6207;49.308;7.336;2022-07-30T07:46:08;23.70;99.90
12289;DHT22;6207;49.308;7.336;2022-07-30T07:48:35;24.00;99.90
12289;DHT22;6207;49.308;7.336;2022-07-30T07:51:02;24.20;99.90
12289;DHT22;6207;49.308;7.336;2022-07-30T07:53:35;23.80;99.90
12289;DHT22;6207;49.308;7.336;2022-07-30T07:56:02;23.80;99.90
12289;DHT22;6207;49.308;7.336;2022-07-30T07:58:30;23.80;99.90
12289;DHT22;6207;49.308;7.336;2022-07-30T08:00:57;23.60;99.90
12289;DHT22;6207;49.308;7.336;2022-07-30T08:03:24;23.60;99.90
12289;DHT22;6207;49.308;7.336;2022-07-30T08:05:51;23.30;99.90
12289;DHT22;6207;49.308;7.336;2022-07-30T08:08:31;23.40;99.90
12289;DHT22;6207;49.308;7.336;2022-07-30T08:10:58;23.70;99.90
12289;DHT22;6207;49.308;7.336;2022-07-30T08:13:25;23.60;99.90
12289;DHT22;6207;49.308;7.336;2022-07-30T08:16:11;23.60;99.90
12289;DHT22;6207;49.308;7.336;2022-07-30T08:18:40;23.50;99.90
12289;DHT22;6207;49.308;7.336;2022-07-30T08:21:07;23.60;99.90
12289;DHT22;6207;49.308;7.336;2022-07-30T08:23:34;23.80;99.90
12289;DHT22;6207;49.308;7.336;2022-07-30T08:26:08;23.60;99.90
12289;DHT22;6207;49.308;7.336;2022-07-30T08:28:35;23.70;99.90
12289;DHT22;6207;49.308;7.336;2022-07-30T08:31:02;23.90;99.90
12289;DHT22;6207;49.308;7.336;2022-07-30T08:33:29;24.00;99.90
12289;DHT22;6207;49.308;7.336;2022-07-30T08:35:56;24.00;99.90
12289;DHT22;6207;49.308;7.336;2022-07-30T08:38:29;23.80;99.90
12289;DHT22;6207;49.308;7.336;2022-07-30T08:40:57;23.80;99.90
12289;DHT22;6207;49.308;7.336;2022-07-30T08:43:24;23.90;99.90
12289;DHT22;6207;49.308;7.336;2022-07-30T08:45:52;24.40;99.90
12289;DHT22;6207;49.308;7.336;2022-07-30T08:48:20;24.30;99.90
12289;DHT22;6207;49.308;7.336;2022-07-30T08:50:49;24.50;99.90
12289;DHT22;6207;49.308;7.336;2022-07-30T08:53:16;24.50;99.90
12289;DHT22;6207;49.308;7.336;2022-07-30T08:55:45;24.20;99.90
12289;DHT22;6207;49.308;7.336;2022-07-30T08:58:28;24.40;99.90
12289;DHT22;6207;49.308;7.336;2022-07-30T09:00:56;24.50;99.90
12289;DHT22;6207;49.308;7.336;2022-07-30T09:03:23;24.40;99.90
12289;DHT22;6207;49.308;7.336;2022-07-30T09:05:50;24.50;99.90
12289;DHT22;6207;49.308;7.336;2022-07-30T09:08:16;24.60;99.90
12289;DHT22;6207;49.308;7.336;2022-07-30T09:10:46;24.30;99.90
12289;DHT22;6207;49.308;7.336;2022-07-30T09:13:27;24.70;99.90
12289;DHT22;6207;49.308;7.336;2022-07-30T09:15:54;24.90;99.90
12289;DHT22;6207;49.308;7.336;2022-07-30T09:18:38;25.10;99.90
12289;DHT22;6207;49.308;7.336;2022-07-30T09:24:00;24.90;99.90
12289;DHT22;6207;49.308;7.336;2022-07-30T09:26:30;24.60;99.90
12289;DHT22;6207;49.308;7.336;2022-07-30T09:29:18;25.00;99.90
12289;DHT22;6207;49.308;7.336;2022-07-30T09:31:56;24.90;99.90
12289;DHT22;6207;49.308;7.336;2022-07-30T09:34:34;25.30;99.90
12289;DHT22;6207;49.308;7.336;2022-07-30T09:37:16;25.50;99.90
12289;DHT22;6207;49.308;7.336;2022-07-30T09:39:43;25.40;99.90
12289;DHT22;6207;49.308;7.336;2022-07-30T09:42:27;25.10;99.90
12289;DHT22;6207;49.308;7.336;2022-07-30T09:45:20;24.80;99.90
12289;DHT22;6207;49.308;7.336;2022-07-30T09:47:47;25.20;99.90
12289;DHT22;6207;49.308;7.336;2022-07-30T09:50:17;25.10;99.90
12289;DHT22;6207;49.308;7.336;2022-07-30T09:53:06;24.90;99.90
12289;DHT22;6207;49.308;7.336;2022-07-30T09:55:35;27.20;99.90
12289;DHT22;6207;49.308;7.336;2022-07-30T09:58:09;29.50;99.90
12289;DHT22;6207;49.308;7.336;2022-07-30T10:00:46;28.30;99.90
12289;DHT22;6207;49.308;7.336;2022-07-30T10:03:23;29.70;99.90
12289;DHT22;6207;49.308;7.336;2022-07-30T10:06:00;27.90;99.90
12289;DHT22;6207;49.308;7.336;2022-07-30T10:11:06;27.80;99.90
12289;DHT22;6207;49.308;7.336;2022-07-30T10:13:36;27.90;99.90
12289;DHT22;6207;49.308;7.336;2022-07-30T10:16:05;26.80;99.90
12289;DHT22;6207;49.308;7.336;2022-07-30T10:18:34;26.50;99.90
12289;DHT22;6207;49.308;7.336;2022-07-30T10:21:02;27.20;99.90
12289;DHT22;6207;49.308;7.336;2022-07-30T10:23:31;26.90;99.90
12289;DHT22;6207;49.308;7.336;2022-07-30T10:25:59;27.10;99.90
12289;DHT22;6207;49.308;7.336;2022-07-30T10:28:31;26.80;99.90
12289;DHT22;6207;49.308;7.336;2022-07-30T10:31:05;26.60;99.90
12289;DHT22;6207;49.308;7.336;2022-07-30T10:33:52;26.40;99.90
12289;DHT22;6207;49.308;7.336;2022-07-30T10:36:20;26.40;99.90
12289;DHT22;6207;49.308;7.336;2022-07-30T10:38:50;26.90;99.90
12289;DHT22;6207;49.308;7.336;2022-07-30T10:41:41;26.60;99.90
12289;DHT22;6207;49.308;7.336;2022-07-30T10:44:40;25.80;99.90
12289;DHT22;6207;49.308;7.336;2022-07-30T10:47:13;25.70;99.90
12289;DHT22;6207;49.308;7.336;2022-07-30T10:52:48;26.30;99.90
12289;DHT22;6207;49.308;7.336;2022-07-30T10:55:30;26.90;99.90
12289;DHT22;6207;49.308;7.336;2022-07-30T10:58:12;27.30;99.90
12289;DHT22;6207;49.308;7.336;2022-07-30T11:03:28;26.60;99.90
12289;DHT22;6207;49.308;7.336;2022-07-30T11:08:50;26.70;99.90
12289;DHT22;6207;49.308;7.336;2022-07-30T11:14:06;27.30;99.90
12289;DHT22;6207;49.308;7.336;2022-07-30T11:19:08;27.50;99.90
12289;DHT22;6207;49.308;7.336;2022-07-30T11:22:23;27.50;99.90
12289;DHT22;6207;49.308;7.336;2022-07-30T11:24:57;26.90;99.90
12289;DHT22;6207;49.308;7.336;2022-07-30T11:27:38;26.60;99.90
12289;DHT22;6207;49.308;7.336;2022-07-30T11:32:45;26.30;99.90
12289;DHT22;6207;49.308;7.336;2022-07-30T11:35:25;26.70;99.90
12289;DHT22;6207;49.308;7.336;2022-07-30T11:38:12;26.70;99.90
12289;DHT22;6207;49.308;7.336;2022-07-30T11:45:41;27.10;99.90
12289;DHT22;6207;49.308;7.336;2022-07-30T11:48:10;27.30;99.90
12289;DHT22;6207;49.308;7.336;2022-07-30T11:50:38;27.30;99.90
12289;DHT22;6207;49.308;7.336;2022-07-30T11:53:07;27.30;99.90
12289;DHT22;6207;49.308;7.336;2022-07-30T11:55:40;27.40;99.90
12289;DHT22;6207;49.308;7.336;2022-07-30T12:00:54;27.10;99.90
12289;DHT22;6207;49.308;7.336;2022-07-30T12:03:24;27.10;99.90
12289;DHT22;6207;49.308;7.336;2022-07-30T12:05:55;27.40;99.90
12289;DHT22;6207;49.308;7.336;2022-07-30T12:08:22;27.30;99.90
12289;DHT22;6207;49.308;7.336;2022-07-30T12:11:02;27.00;99.90
12289;DHT22;6207;49.308;7.336;2022-07-30T12:13:29;26.90;99.90
12289;DHT22;6207;49.308;7.336;2022-07-30T12:16:15;27.10;99.90
12289;DHT22;6207;49.308;7.336;2022-07-30T12:18:44;27.50;99.90
12289;DHT22;6207;49.308;7.336;2022-07-30T12:21:12;27.30;99.90
12289;DHT22;6207;49.308;7.336;2022-07-30T12:24:03;27.40;99.90
12289;DHT22;6207;49.308;7.336;2022-07-30T12:26:31;27.50;99.90
12289;DHT22;6207;49.308;7.336;2022-07-30T12:29:04;27.40;99.90
12289;DHT22;6207;49.308;7.336;2022-07-30T12:31:32;27.60;99.90
12289;DHT22;6207;49.308;7.336;2022-07-30T12:34:22;27.60;99.90
12289;DHT22;6207;49.308;7.336;2022-07-30T12:36:50;27.50;99.90
12289;DHT22;6207;49.308;7.336;2022-07-30T12:39:25;27.70;99.90
12289;DHT22;6207;49.308;7.336;2022-07-30T12:42:00;27.50;99.90
12289;DHT22;6207;49.308;7.336;2022-07-30T13:05:46;28.00;99.90
12289;DHT22;6207;49.308;7.336;2022-07-30T13:08:14;27.70;99.90
12289;DHT22;6207;49.308;7.336;2022-07-30T13:10:59;28.30;99.90
12289;DHT22;6207;49.308;7.336;2022-07-30T13:13:30;28.60;99.90
12289;DHT22;6207;49.308;7.336;2022-07-30T13:16:01;27.90;99.90
12289;DHT22;6207;49.308;7.336;2022-07-30T13:21:04;28.50;99.90
12289;DHT22;6207;49.308;7.336;2022-07-30T13:23:33;28.10;99.90
12289;DHT22;6207;49.308;7.336;2022-07-30T13:26:02;27.60;99.90
12289;DHT22;6207;49.308;7.336;2022-07-30T13:28:35;27.90;99.90
12289;DHT22;6207;49.308;7.336;2022-07-30T13:33:38;28.30;99.90
12289;DHT22;6207;49.308;7.336;2022-07-30T13:36:06;28.10;99.90
12289;DHT22;6207;49.308;7.336;2022-07-30T13:38:37;28.20;99.90
12289;DHT22;6207;49.308;7.336;2022-07-30T13:41:04;28.00;99.90
12289;DHT22;6207;49.308;7.336;2022-07-30T13:43:32;28.20;99.90
12289;DHT22;6207;49.308;7.336;2022-07-30T13:46:00;28.30;99.90
12289;DHT22;6207;49.308;7.336;2022-07-30T13:48:29;28.40;99.90
12289;DHT22;6207;49.308;7.336;2022-07-30T13:53:23;28.00;99.90
12289;DHT22;6207;49.308;7.336;2022-07-30T13:55:50;28.30;99.90
12289;DHT22;6207;49.308;7.336;2022-07-30T13:58:17;28.70;99.90
12289;DHT22;6207;49.308;7.336;2022-07-30T14:00:44;28.60;99.90
12289;DHT22;6207;49.308;7.336;2022-07-30T14:03:14;28.60;99.90
12289;DHT22;6207;49.308;7.336;2022-07-30T14:05:42;28.60;99.90
12289;DHT22;6207;49.308;7.336;2022-07-30T14:08:12;28.80;99.90
12289;DHT22;6207;49.308;7.336;2022-07-30T14:10:48;29.60;99.90
